createdAt,value
2018-02-23T00:02:03.882Z,58.25
2018-02-23T00:04:31.352Z,58.40
2018-02-23T00:06:58.848Z,57.71
2018-02-23T00:09:26.360Z,57.84
2018-02-23T00:11:53.841Z,57.92
2018-02-23T00:14:21.303Z,57.76
2018-02-23T00:16:48.821Z,57.58
2018-02-23T00:19:16.305Z,58.96
2018-02-23T00:21:43.798Z,58.28
2018-02-23T00:24:12.289Z,58.19
2018-02-23T00:26:39.781Z,58.22
2018-02-23T00:29:07.285Z,58.31
2018-02-23T00:31:34.745Z,58.22
2018-02-23T00:34:02.236Z,58.25
2018-02-23T00:36:29.706Z,58.47
2018-02-23T00:38:57.282Z,59.36
2018-02-23T00:41:24.763Z,59.23
2018-02-23T00:43:52.297Z,59.91
2018-02-23T00:46:19.776Z,58.77
2018-02-23T00:48:47.279Z,58.70
2018-02-23T00:51:14.835Z,58.95
2018-02-23T00:53:42.313Z,58.93
2018-02-23T00:56:09.801Z,59.81
2018-02-23T00:58:37.321Z,59.01
2018-02-23T01:01:09.754Z,59.03
2018-02-23T01:03:37.247Z,59.61
2018-02-23T01:06:04.736Z,59.60
2018-02-23T01:08:32.252Z,60.10
2018-02-23T01:10:59.728Z,59.63
2018-02-23T01:13:27.221Z,59.59
2018-02-23T01:15:54.751Z,59.49
2018-02-23T01:18:22.221Z,59.93
2018-02-23T01:20:49.678Z,60.50
2018-02-23T01:23:17.167Z,60.49
2018-02-23T01:25:44.595Z,60.06
2018-02-23T01:28:12.053Z,59.67
2018-02-23T01:30:39.616Z,59.08
2018-02-23T01:33:07.079Z,59.86
2018-02-23T01:35:35.433Z,59.61
2018-02-23T01:38:02.905Z,60.12
2018-02-23T01:40:30.451Z,60.19
2018-02-23T01:42:57.923Z,60.02
2018-02-23T01:45:25.405Z,60.06
2018-02-23T01:47:52.907Z,60.40
2018-02-23T01:50:20.372Z,60.77
2018-02-23T01:52:47.835Z,60.86
2018-02-23T01:55:15.419Z,60.79
2018-02-23T01:57:42.936Z,60.75
2018-02-23T02:00:10.463Z,60.96
2018-02-23T02:02:38.191Z,60.60
2018-02-23T02:05:05.741Z,61.13
2018-02-23T02:07:33.248Z,61.87
2018-02-23T02:10:00.727Z,61.78
2018-02-23T02:12:28.213Z,61.61
2018-02-23T02:14:55.711Z,61.03
2018-02-23T02:17:23.211Z,61.65
2018-02-23T02:19:50.671Z,61.98
2018-02-23T02:22:18.168Z,62.42
2018-02-23T02:24:45.705Z,62.75
2018-02-23T02:27:13.179Z,62.17
2018-02-23T02:29:40.704Z,61.83
2018-02-23T02:32:08.229Z,62.29
2018-02-23T02:34:35.720Z,62.75
2018-02-23T02:37:03.251Z,62.60
2018-02-23T02:39:30.840Z,62.46
2018-02-23T02:41:58.347Z,62.87
2018-02-23T02:44:25.865Z,63.26
2018-02-23T02:46:53.413Z,64.08
2018-02-23T02:49:20.859Z,63.91
2018-02-23T02:51:48.379Z,63.23
2018-02-23T02:54:15.873Z,63.58
2018-02-23T02:56:43.374Z,63.78
2018-02-23T02:59:10.898Z,63.44
2018-02-23T03:01:38.423Z,63.32
2018-02-23T03:04:05.945Z,63.23
2018-02-23T03:06:33.491Z,63.48
2018-02-23T03:09:00.964Z,63.41
2018-02-23T03:11:28.501Z,63.52
2018-02-23T03:13:55.960Z,63.74
2018-02-23T03:16:23.703Z,63.20
2018-02-23T03:18:51.191Z,63.27
2018-02-23T03:21:18.701Z,63.53
2018-02-23T03:23:46.204Z,63.61
2018-02-23T03:26:13.739Z,63.93
2018-02-23T03:28:41.213Z,63.66
2018-02-23T03:31:08.674Z,63.87
2018-02-23T03:33:36.187Z,63.83
2018-02-23T03:36:03.675Z,64.16
2018-02-23T03:38:31.142Z,64.07
2018-02-23T03:40:59.399Z,64.19
2018-02-23T03:43:26.898Z,64.48
2018-02-23T03:45:54.353Z,64.25
2018-02-23T03:48:21.906Z,64.70
2018-02-23T03:50:49.380Z,65.20
2018-02-23T03:53:16.906Z,65.41
2018-02-23T03:55:44.446Z,64.54
2018-02-23T03:58:11.903Z,64.76
2018-02-23T04:00:44.481Z,64.38
2018-02-23T04:03:11.999Z,64.96
2018-02-23T04:05:39.476Z,64.59
2018-02-23T04:08:06.956Z,65.01
2018-02-23T04:10:39.428Z,64.48
2018-02-23T04:13:06.991Z,64.66
2018-02-23T04:15:34.456Z,65.75
2018-02-23T04:18:01.961Z,65.86
2018-02-23T04:20:29.498Z,66.17
2018-02-23T04:22:56.956Z,66.55
2018-02-23T04:25:24.477Z,66.50
2018-02-23T04:27:52.501Z,66.46
2018-02-23T04:30:20.019Z,67.10
2018-02-23T04:32:47.604Z,66.42
2018-02-23T04:35:15.075Z,66.50
2018-02-23T04:37:42.553Z,66.71
2018-02-23T04:40:10.032Z,66.55
2018-02-23T04:42:37.654Z,67.01
2018-02-23T04:45:05.150Z,67.01
2018-02-23T04:47:32.643Z,67.00
2018-02-23T04:50:00.245Z,66.74
2018-02-23T04:52:27.752Z,66.93
2018-02-23T04:54:55.235Z,67.05
2018-02-23T04:57:22.784Z,66.96
2018-02-23T04:59:50.240Z,66.95
2018-02-23T05:02:17.894Z,66.87
2018-02-23T05:04:45.442Z,66.86
2018-02-23T05:07:12.952Z,67.29
2018-02-23T05:09:40.373Z,67.69
2018-02-23T05:12:07.896Z,67.66
2018-02-23T05:14:35.359Z,67.02
2018-02-23T05:17:02.918Z,67.14
2018-02-23T05:19:30.418Z,67.40
2018-02-23T05:21:57.882Z,67.54
2018-02-23T05:24:25.346Z,67.78
2018-02-23T05:26:53.124Z,67.76
2018-02-23T05:29:20.665Z,67.93
2018-02-23T05:31:48.186Z,68.04
2018-02-23T05:34:16.648Z,67.48
2018-02-23T05:36:45.083Z,67.85
2018-02-23T05:39:12.655Z,67.62
2018-02-23T05:41:40.246Z,67.78
2018-02-23T05:44:07.782Z,68.01
2018-02-23T05:46:35.222Z,68.22
2018-02-23T05:49:02.718Z,68.42
2018-02-23T05:51:30.258Z,68.64
2018-02-23T05:53:57.832Z,68.84
2018-02-23T05:56:25.288Z,69.10
2018-02-23T05:58:53.298Z,69.13
2018-02-23T06:01:20.839Z,69.02
2018-02-23T06:03:48.600Z,68.69
2018-02-23T06:06:16.052Z,68.93
2018-02-23T06:08:43.552Z,68.63
2018-02-23T06:11:11.108Z,68.86
2018-02-23T06:13:38.612Z,69.29
2018-02-23T06:16:11.722Z,69.56
2018-02-23T06:18:44.734Z,70.19
2018-02-23T06:21:12.166Z,69.58
2018-02-23T06:23:39.726Z,69.73
2018-02-23T06:26:07.186Z,70.06
2018-02-23T06:28:34.686Z,69.75
2018-02-23T06:31:02.140Z,69.71
2018-02-23T06:33:30.002Z,69.47
2018-02-23T06:35:59.709Z,69.86
2018-02-23T06:38:27.286Z,69.70
2018-02-23T06:41:09.076Z,69.37
2018-02-23T06:43:36.542Z,69.97
2018-02-23T06:46:04.062Z,69.55
2018-02-23T06:48:31.531Z,69.49
2018-02-23T06:50:59.063Z,69.38
2018-02-23T06:53:26.536Z,69.23
2018-02-23T06:55:54.084Z,69.35
2018-02-23T06:58:21.569Z,69.40
2018-02-23T07:00:54.259Z,69.13
2018-02-23T07:03:21.849Z,69.53
2018-02-23T07:05:49.393Z,69.63
2018-02-23T07:08:16.853Z,69.47
2018-02-23T07:10:44.384Z,69.80
2018-02-23T07:13:11.957Z,70.36
2018-02-23T07:15:39.455Z,70.04
2018-02-23T07:18:06.936Z,69.90
2018-02-23T07:20:34.450Z,69.90
2018-02-23T07:23:01.926Z,70.24
2018-02-23T07:25:29.434Z,70.26
2018-02-23T07:27:56.933Z,70.29
2018-02-23T07:30:24.437Z,69.94
2018-02-23T07:32:51.919Z,70.05
2018-02-23T07:35:19.425Z,69.77
2018-02-23T07:37:46.920Z,70.09
2018-02-23T07:40:19.446Z,69.64
2018-02-23T07:42:46.976Z,69.81
2018-02-23T07:45:14.553Z,69.67
2018-02-23T07:47:42.016Z,70.20
2018-02-23T07:50:09.597Z,69.65
2018-02-23T07:52:37.249Z,70.24
2018-02-23T07:55:04.797Z,69.78
2018-02-23T07:57:32.413Z,69.39
2018-02-23T07:59:59.912Z,69.26
2018-02-23T08:02:27.393Z,69.31
2018-02-23T08:04:54.873Z,69.79
2018-02-23T08:07:22.381Z,69.39
2018-02-23T08:09:49.847Z,68.82
2018-02-23T08:12:17.313Z,68.40
2018-02-23T08:14:44.827Z,67.59
2018-02-23T08:17:12.414Z,66.33
2018-02-23T08:19:39.952Z,65.45
2018-02-23T08:22:07.409Z,65.63
2018-02-23T08:24:35.001Z,64.64
2018-02-23T08:27:02.609Z,63.91
2018-02-23T08:29:30.191Z,63.59
2018-02-23T08:31:57.694Z,62.62
2018-02-23T08:34:25.161Z,61.98
2018-02-23T08:36:52.793Z,61.32
2018-02-23T08:39:20.385Z,62.04
2018-02-23T08:41:47.933Z,62.37
2018-02-23T08:44:15.626Z,62.38
2018-02-23T08:46:43.245Z,62.73
2018-02-23T08:49:11.061Z,62.94
2018-02-23T08:51:38.593Z,62.71
2018-02-23T08:54:06.300Z,63.30
2018-02-23T08:56:34.117Z,62.88
2018-02-23T08:59:02.187Z,62.79
2018-02-23T09:01:29.950Z,63.92
2018-02-23T09:03:57.792Z,63.14
2018-02-23T09:06:25.279Z,63.56
2018-02-23T09:08:52.801Z,62.93
2018-02-23T09:11:20.263Z,62.27
2018-02-23T09:13:48.157Z,62.42
2018-02-23T09:16:15.680Z,62.44
2018-02-23T09:18:44.613Z,62.06
2018-02-23T09:21:12.085Z,61.33
2018-02-23T09:23:39.796Z,60.65
2018-02-23T09:26:07.368Z,60.03
2018-02-23T09:28:34.980Z,60.75
2018-02-23T09:31:02.883Z,59.99
2018-02-23T09:33:42.251Z,60.64
2018-02-23T09:36:09.732Z,55.43
2018-02-23T09:38:37.694Z,49.21
2018-02-23T09:41:05.363Z,43.09
2018-02-23T09:43:32.990Z,42.22
2018-02-23T09:46:00.801Z,39.61
2018-02-23T09:48:28.873Z,37.26
2018-02-23T09:50:56.395Z,35.83
2018-02-23T09:53:24.059Z,36.36
2018-02-23T09:55:51.635Z,34.87
2018-02-23T09:58:22.622Z,34.80
2018-02-23T10:00:50.637Z,38.19
2018-02-23T10:03:18.173Z,38.51
2018-02-23T10:05:45.957Z,42.44
2018-02-23T10:08:13.711Z,45.16
2018-02-23T10:10:41.194Z,48.06
2018-02-23T10:13:09.035Z,51.21
2018-02-23T10:15:40.296Z,53.19
2018-02-23T10:18:07.967Z,52.10
2018-02-23T10:20:35.563Z,48.31
2018-02-23T10:23:03.260Z,43.31
2018-02-23T10:25:30.723Z,39.98
2018-02-23T10:27:58.179Z,36.23
2018-02-23T10:30:25.732Z,34.83
2018-02-23T10:32:53.401Z,34.79
2018-02-23T10:35:20.929Z,37.39
2018-02-23T10:37:48.492Z,39.29
2018-02-23T10:40:16.218Z,41.60
2018-02-23T10:42:43.736Z,42.34
2018-02-23T10:45:11.228Z,42.51
2018-02-23T10:47:39.161Z,44.13
2018-02-23T10:50:07.135Z,44.56
2018-02-23T10:52:34.796Z,42.27
2018-02-23T10:55:02.327Z,42.04
2018-02-23T10:57:29.893Z,40.76
2018-02-23T10:59:57.475Z,41.17
2018-02-23T11:02:25.034Z,40.45
2018-02-23T11:04:52.574Z,40.48
2018-02-23T11:07:20.398Z,40.50
2018-02-23T11:09:47.958Z,38.84
2018-02-23T11:12:15.404Z,37.83
2018-02-23T11:14:42.921Z,40.05
2018-02-23T11:17:10.571Z,38.99
2018-02-23T11:19:40.508Z,37.82
2018-02-23T11:22:08.467Z,37.24
2018-02-23T11:24:37.811Z,38.12
2018-02-23T11:27:05.333Z,38.16
2018-02-23T11:29:32.842Z,39.13
2018-02-23T11:32:00.350Z,39.38
2018-02-23T11:34:28.204Z,38.54
2018-02-23T11:36:56.480Z,43.84
2018-02-23T11:39:24.149Z,37.71
2018-02-23T11:41:51.621Z,37.44
2018-02-23T11:44:24.078Z,37.87
2018-02-23T11:46:51.846Z,36.21
2018-02-23T11:49:19.405Z,34.53
2018-02-23T11:51:47.478Z,34.83
2018-02-23T11:54:16.113Z,36.25
2018-02-23T11:56:44.010Z,36.86
2018-02-23T11:59:11.636Z,35.95
2018-02-23T12:01:39.561Z,36.24
2018-02-23T12:04:07.252Z,33.62
2018-02-23T12:06:34.753Z,34.06
2018-02-23T12:09:02.324Z,34.49
2018-02-23T12:11:29.967Z,34.83
2018-02-23T12:13:57.778Z,33.87
2018-02-23T12:16:25.315Z,32.50
2018-02-23T12:18:52.829Z,33.15
2018-02-23T12:21:20.486Z,33.61
2018-02-23T12:23:48.222Z,33.60
2018-02-23T12:26:15.900Z,32.73
2018-02-23T12:28:44.208Z,32.52
2018-02-23T12:31:13.860Z,31.44
2018-02-23T12:33:41.461Z,30.77
2018-02-23T12:36:09.075Z,30.22
2018-02-23T12:38:36.579Z,29.57
2018-02-23T12:41:05.698Z,29.37
2018-02-23T12:43:33.205Z,30.12
2018-02-23T12:46:00.752Z,30.40
2018-02-23T12:48:28.415Z,29.94
2018-02-23T12:50:56.200Z,29.57
2018-02-23T12:53:24.787Z,28.88
2018-02-23T12:55:52.318Z,28.70
2018-02-23T12:58:19.876Z,29.50
2018-02-23T13:00:47.458Z,28.91
2018-02-23T13:03:15.497Z,29.65
2018-02-23T13:05:43.115Z,29.22
2018-02-23T13:08:10.852Z,29.02
2018-02-23T13:10:39.104Z,27.79
2018-02-23T13:13:06.572Z,28.21
2018-02-23T13:15:34.329Z,29.15
2018-02-23T13:20:44.214Z,29.76
2018-02-23T13:23:11.928Z,29.30
2018-02-23T13:25:39.493Z,29.12
2018-02-23T13:28:12.575Z,28.67
2018-02-23T13:30:40.254Z,27.00
2018-02-23T13:33:09.444Z,27.45
2018-02-23T13:35:37.320Z,27.08
2018-02-23T13:38:04.821Z,26.83
2018-02-23T13:40:32.432Z,28.09
2018-02-23T13:42:59.993Z,28.19
2018-02-23T13:45:27.543Z,27.59
2018-02-23T13:47:55.351Z,28.02
2018-02-23T13:50:23.106Z,28.53
2018-02-23T13:52:50.786Z,27.88
2018-02-23T13:55:18.496Z,26.31
2018-02-23T13:57:46.207Z,26.55
2018-02-23T14:00:14.421Z,26.21
2018-02-23T14:02:41.925Z,26.55
2018-02-23T14:05:09.475Z,26.26
2018-02-23T14:07:37.153Z,26.93
2018-02-23T14:10:04.980Z,26.94
2018-02-23T14:12:32.492Z,27.34
2018-02-23T14:15:00.131Z,26.48
2018-02-23T14:17:29.062Z,27.30
2018-02-23T14:19:58.130Z,27.82
2018-02-23T14:22:31.053Z,29.66
2018-02-23T14:24:58.758Z,30.95
2018-02-23T14:27:26.434Z,31.17
2018-02-23T14:29:55.026Z,32.18
2018-02-23T14:32:22.824Z,32.86
2018-02-23T14:34:50.574Z,33.71
2018-02-23T14:37:18.379Z,34.73
2018-02-23T14:39:46.031Z,35.96
2018-02-23T14:42:13.916Z,35.70
2018-02-23T14:44:42.164Z,36.17
2018-02-23T14:47:09.719Z,37.87
2018-02-23T14:52:34.043Z,38.43
2018-02-23T14:55:02.325Z,38.52
2018-02-23T14:57:29.961Z,38.52
2018-02-23T14:59:57.549Z,38.79
2018-02-23T15:02:25.121Z,39.08
2018-02-23T15:04:52.786Z,39.61
2018-02-23T15:07:20.758Z,39.77
2018-02-23T15:09:48.423Z,39.81
2018-02-23T15:12:15.978Z,39.64
2018-02-23T15:14:44.155Z,40.19
2018-02-23T15:17:11.917Z,39.83
2018-02-23T15:19:40.283Z,39.43
2018-02-23T15:22:08.955Z,39.38
2018-02-23T15:24:36.525Z,38.95
2018-02-23T15:27:04.169Z,39.22
2018-02-23T15:29:31.934Z,39.71
2018-02-23T15:32:16.309Z,39.43
2018-02-23T15:34:43.860Z,39.80
2018-02-23T15:37:11.812Z,40.31
2018-02-23T15:39:39.560Z,39.71
2018-02-23T15:42:07.483Z,40.47
2018-02-23T15:44:40.217Z,40.66
2018-02-23T15:47:07.871Z,40.70
2018-02-23T15:49:39.358Z,45.50
2018-02-23T15:52:20.916Z,41.40
2018-02-23T15:54:48.531Z,40.80
2018-02-23T15:57:16.345Z,40.49
2018-02-23T15:59:43.983Z,41.02
2018-02-23T16:02:11.814Z,41.28
2018-02-23T16:04:39.546Z,41.50
2018-02-23T16:07:07.067Z,42.05
2018-02-23T16:09:34.607Z,42.06
2018-02-23T16:12:02.332Z,41.77
2018-02-23T16:14:30.161Z,41.56
2018-02-23T16:16:57.779Z,42.30
2018-02-23T16:19:25.313Z,42.51
2018-02-23T16:21:53.058Z,42.78
2018-02-23T16:24:20.687Z,42.83
2018-02-23T16:26:48.187Z,43.49
2018-02-23T16:29:16.155Z,43.71
2018-02-23T16:31:43.826Z,44.04
2018-02-23T16:34:11.306Z,44.60
2018-02-23T16:36:38.899Z,44.81
2018-02-23T16:39:07.335Z,44.29
2018-02-23T16:41:34.943Z,44.18
2018-02-23T16:44:02.533Z,43.49
2018-02-23T16:46:30.055Z,43.12
2018-02-23T16:48:57.786Z,43.13
2018-02-23T16:51:25.374Z,42.66
2018-02-23T16:53:53.078Z,42.55
2018-02-23T16:56:20.587Z,42.80
2018-02-23T16:58:48.082Z,42.09
2018-02-23T17:01:16.385Z,42.36
2018-02-23T17:03:43.914Z,42.69
2018-02-23T17:06:11.406Z,42.60
2018-02-23T17:08:39.106Z,43.19
2018-02-23T17:11:06.601Z,43.38
2018-02-23T17:13:34.116Z,43.69
2018-02-23T17:16:01.590Z,43.70
2018-02-23T17:18:29.087Z,43.67
2018-02-23T17:20:56.673Z,43.44
2018-02-23T17:23:24.890Z,44.21
2018-02-23T17:25:53.711Z,44.73
2018-02-23T17:28:21.394Z,44.59
2018-02-23T17:30:49.360Z,44.36
2018-02-23T17:33:17.125Z,45.00
2018-02-23T17:35:44.705Z,44.75
2018-02-23T17:38:12.217Z,45.25
2018-02-23T17:40:39.823Z,45.11
2018-02-23T17:43:07.397Z,44.87
2018-02-23T17:45:34.929Z,45.25
2018-02-23T17:48:03.316Z,45.31
2018-02-23T17:50:30.862Z,45.41
2018-02-23T17:52:58.361Z,45.46
2018-02-23T17:55:26.021Z,45.89
2018-02-23T17:57:53.519Z,45.47
2018-02-23T18:00:21.114Z,45.85
2018-02-23T18:02:48.632Z,46.01
2018-02-23T18:05:16.132Z,45.86
2018-02-23T18:07:43.679Z,46.19
2018-02-23T18:10:11.939Z,46.11
2018-02-23T18:12:39.560Z,46.65
2018-02-23T18:15:07.539Z,46.56
2018-02-23T18:17:35.079Z,46.31
2018-02-23T18:20:02.561Z,46.40
2018-02-23T18:22:30.090Z,46.42
2018-02-23T18:24:59.605Z,46.99
2018-02-23T18:27:27.156Z,46.74
2018-02-23T18:29:55.018Z,47.04
2018-02-23T18:32:22.664Z,46.87
2018-02-23T18:34:50.162Z,47.11
2018-02-23T18:37:18.169Z,47.01
2018-02-23T18:39:45.785Z,47.51
2018-02-23T18:42:18.295Z,47.29
2018-02-23T18:44:45.958Z,48.15
2018-02-23T18:47:13.463Z,49.25
2018-02-23T18:49:41.012Z,47.72
2018-02-23T18:52:14.011Z,47.78
2018-02-23T18:54:41.716Z,47.70
2018-02-23T18:57:09.199Z,47.76
2018-02-23T18:59:36.814Z,47.92
2018-02-23T19:02:04.538Z,47.86
2018-02-23T19:04:32.035Z,48.15
2018-02-23T19:06:59.588Z,48.31
2018-02-23T19:09:27.099Z,47.93
2018-02-23T19:11:54.965Z,47.82
2018-02-23T19:14:22.488Z,47.88
2018-02-23T19:16:50.078Z,47.47
2018-02-23T19:19:17.679Z,47.18
2018-02-23T19:21:45.197Z,47.20
2018-02-23T19:24:12.753Z,47.11
2018-02-23T19:26:40.233Z,46.42
2018-02-23T19:29:07.789Z,46.37
2018-02-23T19:31:35.293Z,46.61
2018-02-23T19:34:02.774Z,46.69
2018-02-23T19:36:30.415Z,46.78
2018-02-23T19:38:57.884Z,46.91
2018-02-23T19:41:25.529Z,46.48
2018-02-23T19:43:52.996Z,47.01
2018-02-23T19:46:20.511Z,46.75
2018-02-23T19:48:48.022Z,46.78
2018-02-23T19:51:15.717Z,46.68
2018-02-23T19:53:43.337Z,47.09
2018-02-23T19:56:10.936Z,47.06
2018-02-23T19:58:39.023Z,47.30
2018-02-23T20:01:06.615Z,47.23
2018-02-23T20:03:34.166Z,47.38
2018-02-23T20:06:01.679Z,47.25
2018-02-23T20:08:29.194Z,47.49
2018-02-23T20:10:56.790Z,47.64
2018-02-23T20:13:25.031Z,48.01
2018-02-23T20:15:52.517Z,47.49
2018-02-23T20:18:20.080Z,47.64
2018-02-23T20:20:47.639Z,47.00
2018-02-23T20:23:15.170Z,47.50
2018-02-23T20:25:42.673Z,48.10
2018-02-23T20:28:10.142Z,47.98
2018-02-23T20:30:37.923Z,47.98
2018-02-23T20:33:05.562Z,48.26
2018-02-23T20:35:33.076Z,48.83
2018-02-23T20:38:00.706Z,48.69
2018-02-23T20:40:28.358Z,48.77
2018-02-23T20:42:55.897Z,49.39
2018-02-23T20:45:23.439Z,49.76
2018-02-23T20:47:51.724Z,49.88
2018-02-23T20:50:20.079Z,50.27
2018-02-23T20:52:47.618Z,49.96
2018-02-23T20:55:15.107Z,50.00
2018-02-23T20:57:42.711Z,50.41
2018-02-23T21:00:10.537Z,50.93
2018-02-23T21:02:38.347Z,51.08
2018-02-23T21:05:05.923Z,50.72
2018-02-23T21:07:33.428Z,50.97
2018-02-23T21:10:00.997Z,50.52
2018-02-23T21:12:28.571Z,51.06
2018-02-23T21:14:56.163Z,51.10
2018-02-23T21:17:23.733Z,50.87
2018-02-23T21:19:51.345Z,50.60
2018-02-23T21:22:19.418Z,50.64
2018-02-23T21:24:46.937Z,50.52
2018-02-23T21:27:14.470Z,50.92
2018-02-23T21:29:42.031Z,50.53
2018-02-23T21:32:09.514Z,51.27
2018-02-23T21:34:36.997Z,50.88
2018-02-23T21:37:04.474Z,51.55
2018-02-23T21:39:32.074Z,51.58
2018-02-23T21:41:59.638Z,51.54
2018-02-23T21:44:39.027Z,51.45
2018-02-23T21:47:06.532Z,51.95
2018-02-23T21:49:34.309Z,52.32
2018-02-23T21:52:01.911Z,52.55
2018-02-23T21:54:29.720Z,52.62
2018-02-23T21:56:57.178Z,52.72
2018-02-23T21:59:24.653Z,52.96
2018-02-23T22:01:52.201Z,52.86
2018-02-23T22:04:19.839Z,52.99
2018-02-23T22:06:47.307Z,52.44
2018-02-23T22:09:14.978Z,52.19
2018-02-23T22:11:42.520Z,52.17
2018-02-23T22:14:10.601Z,52.44
2018-02-23T22:16:38.200Z,52.88
2018-02-23T22:19:05.718Z,53.29
2018-02-23T22:21:33.187Z,53.35
2018-02-23T22:24:00.737Z,54.13
2018-02-23T22:26:28.208Z,53.95
2018-02-23T22:28:55.754Z,54.17
2018-02-23T22:31:23.318Z,54.58
2018-02-23T22:33:50.884Z,55.01
2018-02-23T22:36:18.414Z,54.99
2018-02-23T22:38:45.892Z,55.33
2018-02-23T22:41:13.386Z,55.26
2018-02-23T22:43:40.965Z,55.87
2018-02-23T22:46:08.485Z,56.00
2018-02-23T22:48:36.051Z,55.73
2018-02-23T22:51:03.676Z,55.85
2018-02-23T22:53:31.172Z,55.71
2018-02-23T22:55:58.698Z,55.62
2018-02-23T22:58:26.222Z,55.67
2018-02-23T23:00:53.765Z,55.45
2018-02-23T23:03:21.542Z,55.47
2018-02-23T23:05:49.094Z,56.19
2018-02-23T23:08:16.635Z,56.10
2018-02-23T23:10:44.184Z,56.17
2018-02-23T23:13:11.818Z,56.04
2018-02-23T23:15:42.150Z,56.35
2018-02-23T23:18:09.758Z,56.45
2018-02-23T23:20:38.242Z,56.72
2018-02-23T23:23:05.990Z,56.49
2018-02-23T23:25:33.602Z,56.39
2018-02-23T23:28:02.223Z,56.01
2018-02-23T23:30:29.786Z,56.07
2018-02-23T23:32:57.652Z,56.11
2018-02-23T23:35:25.240Z,56.16
2018-02-23T23:37:52.868Z,55.98
2018-02-23T23:40:20.704Z,55.64
2018-02-23T23:42:48.350Z,55.93
2018-02-23T23:45:15.916Z,56.06
2018-02-23T23:47:43.642Z,55.92
2018-02-23T23:50:11.166Z,55.97
2018-02-23T23:52:38.686Z,56.01
2018-02-23T23:55:06.373Z,56.13
2018-02-23T23:57:33.952Z,56.12
